Ashley, North Dakota
Current Conditions -  °F | °C
As of 2:55 AM on Wednesday 22 Oct 2014 (Local Time) from K7L2 Reporting Station
Clear Clear  
Wind Chill: 59°   Ceiling: Unl
Heat Index: 59°   Visibility: 10mi
Dew Point: 45°   Wind: 18mph
Humidity: 59%   Direction: 160°SSE
Pressure: 29.7"   Gusts: 26mph
Location:  46.03°N, 99.37°W
Report Text: K7L2 220755Z AUTO 16016G23KT 10SM CLR 15/07 A2970 RMK AO2 PWINO PNO
Loading
Personal Weather Stations






























Interactive Weather Map
Tropical Storm Tracking
New forecast layout! Learn more

10-Day Weather Forecast

Advertisements
Track Severe Weather on mobile